Time;durP1;ratioP1;P1;durP2;ratioP2;P2;SDS_P1;SDS_P2;PMS_P1;PMS_P2;Temp;Humidity;BMP_temperature;BMP_pressure;BME280_temperature;BME280_humidity;BME280_pressure;Samples;Min_cycle;Max_cycle;Signal;HPM_P1;HPM_P2
2021/01/31 00:02:18;;;;;;;;;;;;;;;16.40;42.91;98426.69;4408723;32;19946;-52
2021/01/31 00:04:43;;;;;;;;;;;;;;;16.52;42.53;98429.28;4417923;32;20569;-53
2021/01/31 00:07:09;;;;;;;;;;;;;;;16.48;42.74;98427.53;4416952;32;19962;-52
2021/01/31 00:09:35;;;;;;;;;;;;;;;16.46;42.73;98434.56;4402665;32;19968;-55
2021/01/31 00:12:01;;;;;;;;;;;;;;;16.51;42.71;98435.44;4402020;32;20291;-52
2021/01/31 00:14:27;;;;;;;;;;;;;;;16.51;42.58;98445.94;4413784;32;19954;-48
2021/01/31 00:16:53;;;;;;;;;;;;;;;16.48;42.78;98445.91;4417650;32;19985;-51
2021/01/31 00:19:19;;;;;;;;;;;;;;;16.46;42.82;98442.44;4406010;32;20287;-52
2021/01/31 00:21:45;;;;;;;;;;;;;;;16.43;43.34;98442.44;4416841;32;19954;-50
2021/01/31 00:24:10;;;;;;;;;;;;;;;16.50;42.93;98440.69;4415694;32;19977;-55
2021/01/31 00:26:36;;;;;;;;;;;;;;;16.50;42.62;98441.56;4416896;32;19949;-50
2021/01/31 00:29:03;;;;;;;;;;;;;;;16.53;42.55;98438.94;4407197;32;20331;-52
2021/01/31 00:31:29;;;;;;;;;;;;;;;16.51;42.73;98440.69;4403307;32;19950;-50
2021/01/31 00:33:55;;;;;;;;;;;;;;;16.47;43.05;98436.28;4416002;32;19987;-54
2021/01/31 00:36:20;;;;;;;;;;;;;;;16.44;43.07;98439.81;4416285;32;20009;-54
2021/01/31 00:38:46;;;;;;;;;;;;;;;16.48;42.78;98451.19;4410976;32;19955;-53
2021/01/31 00:41:12;;;;;;;;;;;;;;;16.44;43.12;98449.44;4400984;32;20417;-50
2021/01/31 00:43:38;;;;;;;;;;;;;;;16.45;42.77;98456.44;4405369;32;19953;-56
2021/01/31 00:46:04;;;;;;;;;;;;;;;16.46;42.68;98462.59;4415737;32;20372;-53
2021/01/31 00:48:30;;;;;;;;;;;;;;;16.45;42.75;98453.81;4412425;32;19948;-50
2021/01/31 00:50:56;;;;;;;;;;;;;;;16.47;42.54;98449.44;4413423;32;19960;-53
2021/01/31 00:53:22;;;;;;;;;;;;;;;16.43;42.63;98447.69;4415875;32;19953;-54
2021/01/31 00:55:48;;;;;;;;;;;;;;;16.44;42.68;98445.09;4416808;32;19951;-53
2021/01/31 00:58:13;;;;;;;;;;;;;;;16.46;42.84;98442.44;4415523;32;19984;-54
2021/01/31 01:00:39;;;;;;;;;;;;;;;16.43;42.90;98451.22;4400581;32;20358;-50
2021/01/31 01:03:05;;;;;;;;;;;;;;;16.42;43.26;98456.47;4411059;32;19954;-49
2021/01/31 01:05:31;;;;;;;;;;;;;;;16.38;43.36;98462.59;4416778;32;19970;-52
2021/01/31 01:07:57;;;;;;;;;;;;;;;16.41;42.91;98457.34;4417098;32;19950;-53
2021/01/31 01:10:23;;;;;;;;;;;;;;;16.37;43.07;98463.50;4402664;32;19954;-52
2021/01/31 01:12:49;;;;;;;;;;;;;;;16.42;42.70;98461.72;4401782;32;20357;-55
2021/01/31 01:15:15;;;;;;;;;;;;;;;16.44;42.68;98459.97;4412389;32;20001;-52
2021/01/31 01:17:41;;;;;;;;;;;;;;;16.33;42.98;98452.09;4416354;32;19958;-54
2021/01/31 01:20:07;;;;;;;;;;;;;;;16.38;43.27;98445.06;4412555;32;19954;-52
2021/01/31 01:22:33;;;;;;;;;;;;;;;16.40;42.82;98442.47;4417273;32;19958;-53
2021/01/31 01:25:02;;;;;;;;;;;;;;;16.38;43.27;98438.97;4416774;32;20338;-52
2021/01/31 01:27:28;;;;;;;;;;;;;;;16.38;42.95;98447.69;4416195;32;20313;-51
2021/01/31 01:29:54;;;;;;;;;;;;;;;16.37;43.21;98447.72;4407553;32;19962;-55
2021/01/31 01:32:20;;;;;;;;;;;;;;;16.42;43.09;98454.72;4402943;32;19974;-49
2021/01/31 01:34:45;;;;;;;;;;;;;;;16.42;42.84;98453.84;4415147;32;19954;-52
2021/01/31 01:37:11;;;;;;;;;;;;;;;16.40;42.82;98458.22;4415481;32;19988;-53
2021/01/31 01:39:37;;;;;;;;;;;;;;;16.37;43.35;98468.75;4416811;32;19987;-48
2021/01/31 01:42:03;;;;;;;;;;;;;;;16.40;43.07;98464.34;4415775;32;19988;-50
2021/01/31 01:44:29;;;;;;;;;;;;;;;16.39;42.96;98466.97;4415711;32;19954;-52
2021/01/31 01:46:55;;;;;;;;;;;;;;;16.36;42.94;98472.22;4417015;32;19970;-50
2021/01/31 01:49:21;;;;;;;;;;;;;;;16.32;43.10;98474.00;4417989;32;20370;-56
2021/01/31 01:51:47;;;;;;;;;;;;;;;16.39;42.92;98483.59;4419672;32;19950;-52
2021/01/31 01:54:12;;;;;;;;;;;;;;;16.41;42.94;98478.34;4418529;32;19964;-55
2021/01/31 01:56:38;;;;;;;;;;;;;;;16.43;42.82;98474.88;4418855;32;20339;-51
2021/01/31 01:59:04;;;;;;;;;;;;;;;16.38;43.36;98470.50;4417573;32;19954;-52
2021/01/31 02:01:30;;;;;;;;;;;;;;;16.44;43.19;98465.22;4404159;32;19959;-51
2021/01/31 02:03:56;;;;;;;;;;;;;;;16.43;43.08;98469.59;4411064;32;20397;-54
2021/01/31 02:06:22;;;;;;;;;;;;;;;16.44;42.80;98466.09;4419120;32;20044;-54
2021/01/31 02:08:49;;;;;;;;;;;;;;;16.33;43.04;98467.88;4418089;32;19965;-52
2021/01/31 02:11:14;;;;;;;;;;;;;;;16.37;42.83;98464.34;4406612;32;20358;-51
2021/01/31 02:13:40;;;;;;;;;;;;;;;16.39;42.68;98459.09;4403790;32;19955;-53
2021/01/31 02:16:06;;;;;;;;;;;;;;;16.42;42.52;98466.97;4413998;32;20334;-50
2021/01/31 02:18:32;;;;;;;;;;;;;;;16.40;42.71;98474.00;4416584;32;19954;-55
2021/01/31 02:20:58;;;;;;;;;;;;;;;16.38;42.67;98475.75;4419198;32;19946;-51
2021/01/31 02:23:24;;;;;;;;;;;;;;;16.36;42.66;98477.47;4417900;32;20000;-55
2021/01/31 02:25:50;;;;;;;;;;;;;;;16.42;42.72;98475.75;4418309;32;19961;-53
2021/01/31 02:28:16;;;;;;;;;;;;;;;16.40;42.45;98480.09;4417718;32;19950;-52
2021/01/31 02:30:42;;;;;;;;;;;;;;;16.39;42.53;98477.50;4412326;32;19996;-54
2021/01/31 02:33:08;;;;;;;;;;;;;;;16.34;42.83;98473.97;4403375;32;20006;-55
2021/01/31 02:35:35;;;;;;;;;;;;;;;16.39;43.29;98482.75;4413025;32;20005;-53
2021/01/31 02:38:01;;;;;;;;;;;;;;;16.33;43.39;98477.47;4418354;32;19998;-54
2021/01/31 02:40:27;;;;;;;;;;;;;;;16.34;43.18;98480.12;4413946;32;20295;-52
2021/01/31 02:42:53;;;;;;;;;;;;;;;16.33;43.14;98488.00;4403170;32;19947;-51
2021/01/31 02:45:18;;;;;;;;;;;;;;;16.33;43.10;98488.00;4405745;32;19957;-52
2021/01/31 02:47:44;;;;;;;;;;;;;;;16.35;42.83;98492.37;4418170;32;19987;-55
2021/01/31 02:50:10;;;;;;;;;;;;;;;16.36;42.79;98480.09;4416459;32;19969;-55
2021/01/31 02:52:36;;;;;;;;;;;;;;;16.35;42.79;98475.72;4404797;32;19954;-53
2021/01/31 02:55:02;;;;;;;;;;;;;;;16.37;43.00;98476.63;4418466;32;19953;-51
2021/01/31 02:57:28;;;;;;;;;;;;;;;16.29;43.06;98482.75;4402988;32;20335;-51
2021/01/31 02:59:54;;;;;;;;;;;;;;;16.32;42.69;98471.38;4401960;32;19954;-50
2021/01/31 03:02:19;;;;;;;;;;;;;;;16.34;42.55;98474.88;4414468;32;19974;-49
2021/01/31 03:04:45;;;;;;;;;;;;;;;16.38;42.42;98481.00;4417705;32;20574;-53
2021/01/31 03:07:11;;;;;;;;;;;;;;;16.42;42.29;98478.38;4406262;32;19950;-55
2021/01/31 03:09:37;;;;;;;;;;;;;;;16.39;42.37;98480.12;4414772;32;20331;-53
2021/01/31 03:12:03;;;;;;;;;;;;;;;16.38;42.48;98486.25;4417552;32;19989;-54
2021/01/31 03:14:29;;;;;;;;;;;;;;;16.41;42.64;98486.25;4418464;32;19946;-52
2021/01/31 03:16:55;;;;;;;;;;;;;;;16.40;42.76;98490.59;4418203;32;19958;-53
2021/01/31 03:19:21;;;;;;;;;;;;;;;16.37;43.31;98493.25;4416957;32;19973;-52
2021/01/31 03:21:47;;;;;;;;;;;;;;;16.32;43.11;98489.75;4418204;32;20377;-53
2021/01/31 03:24:13;;;;;;;;;;;;;;;16.33;43.01;98490.63;4416775;32;19974;-54
2021/01/31 03:26:38;;;;;;;;;;;;;;;16.36;42.74;98490.59;4411270;32;19966;-52
2021/01/31 03:29:04;;;;;;;;;;;;;;;16.34;42.88;98495.00;4401681;32;19943;-52
2021/01/31 03:31:30;;;;;;;;;;;;;;;16.33;42.89;98488.00;4408393;32;20273;-50
2021/01/31 03:33:56;;;;;;;;;;;;;;;16.33;42.78;98477.47;4418224;32;19958;-55
2021/01/31 03:36:22;;;;;;;;;;;;;;;16.34;42.73;98479.22;4413318;32;19962;-53
2021/01/31 03:38:48;;;;;;;;;;;;;;;16.32;42.62;98491.50;4402120;32;19986;-55
2021/01/31 03:41:14;;;;;;;;;;;;;;;16.29;42.79;98498.50;4408764;32;19973;-53
2021/01/31 03:43:39;;;;;;;;;;;;;;;16.29;43.03;98498.50;4416833;32;19950;-53
2021/01/31 03:46:05;;;;;;;;;;;;;;;16.31;42.80;98506.41;4415595;32;19942;-56
2021/01/31 03:48:31;;;;;;;;;;;;;;;16.34;42.81;98510.75;4401163;32;20339;-52
2021/01/31 03:50:57;;;;;;;;;;;;;;;16.38;42.71;98509.91;4414629;32;19962;-55
2021/01/31 03:53:23;;;;;;;;;;;;;;;16.36;42.57;98515.13;4401562;32;19981;-52
2021/01/31 03:55:49;;;;;;;;;;;;;;;16.33;42.77;98509.00;4402991;32;19950;-53
2021/01/31 03:58:15;;;;;;;;;;;;;;;16.39;42.50;98503.75;4414501;32;19954;-50
2021/01/31 04:00:41;;;;;;;;;;;;;;;16.37;42.41;98495.88;4417429;32;19990;-52
2021/01/31 04:03:07;;;;;;;;;;;;;;;16.38;42.26;98507.28;4403369;32;19955;-50
2021/01/31 04:05:33;;;;;;;;;;;;;;;16.36;42.32;98498.50;4402197;32;20574;-51
2021/01/31 04:07:58;;;;;;;;;;;;;;;16.38;42.25;98504.66;4413314;32;20015;-53
2021/01/31 04:10:24;;;;;;;;;;;;;;;16.37;42.09;98506.38;4415887;32;20268;-49
2021/01/31 04:12:50;;;;;;;;;;;;;;;16.33;42.34;98504.66;4407752;32;19966;-52
2021/01/31 04:15:16;;;;;;;;;;;;;;;16.38;42.22;98507.28;4402510;32;19934;-54
2021/01/31 04:17:42;;;;;;;;;;;;;;;16.38;42.09;98502.00;4417340;32;20339;-53
2021/01/31 04:20:08;;;;;;;;;;;;;;;16.39;42.20;98501.13;4416027;32;19983;-52
2021/01/31 04:22:34;;;;;;;;;;;;;;;16.32;42.19;98496.75;4416370;32;19965;-54
2021/01/31 04:25:00;;;;;;;;;;;;;;;16.32;42.38;98496.75;4417232;32;19973;-52
2021/01/31 04:27:25;;;;;;;;;;;;;;;16.33;42.22;98496.75;4411058;32;19965;-56
2021/01/31 04:29:51;;;;;;;;;;;;;;;16.36;42.34;98493.22;4400606;32;19946;-54
2021/01/31 04:32:17;;;;;;;;;;;;;;;16.29;42.46;98495.88;4405433;32;19954;-52
2021/01/31 04:34:43;;;;;;;;;;;;;;;16.37;42.29;98497.63;4416574;32;20390;-57
2021/01/31 04:37:09;;;;;;;;;;;;;;;16.34;42.50;98505.50;4413604;32;19947;-53
2021/01/31 04:39:35;;;;;;;;;;;;;;;16.35;42.40;98507.25;4401017;32;19961;-52
2021/01/31 04:42:01;;;;;;;;;;;;;;;16.33;42.47;98506.38;4402518;32;20374;-54
2021/01/31 04:44:26;;;;;;;;;;;;;;;16.33;42.44;98498.50;4415801;32;19958;-53
2021/01/31 04:46:52;;;;;;;;;;;;;;;16.32;42.53;98504.63;4416795;32;19962;-56
2021/01/31 04:49:18;;;;;;;;;;;;;;;16.32;42.44;98496.75;4402433;32;20295;-51
2021/01/31 04:51:44;;;;;;;;;;;;;;;16.26;42.54;98514.28;4416378;32;19968;-53
2021/01/31 04:54:10;;;;;;;;;;;;;;;16.24;42.60;98516.03;4415817;32;19983;-52
2021/01/31 04:56:36;;;;;;;;;;;;;;;16.27;42.57;98516.03;4416682;32;19980;-54
2021/01/31 04:59:02;;;;;;;;;;;;;;;16.33;42.46;98522.13;4402752;32;20195;-53
2021/01/31 05:01:28;;;;;;;;;;;;;;;16.33;42.58;98516.88;4401582;32;20702;-54
2021/01/31 05:03:53;;;;;;;;;;;;;;;16.33;42.30;98520.41;4411441;32;20002;-52
2021/01/31 05:06:19;;;;;;;;;;;;;;;16.29;42.38;98522.16;4416463;32;20323;-56
2021/01/31 05:08:45;;;;;;;;;;;;;;;16.24;42.66;98516.03;4406256;32;20007;-53
2021/01/31 05:11:11;;;;;;;;;;;;;;;16.24;42.55;98520.41;4401090;32;20339;-53
2021/01/31 05:13:37;;;;;;;;;;;;;;;16.30;42.44;98520.41;4408405;32;19958;-56
2021/01/31 05:16:03;;;;;;;;;;;;;;;16.29;42.55;98530.03;4416728;32;19990;-49
2021/01/31 05:18:29;;;;;;;;;;;;;;;16.29;42.49;98535.28;4416234;32;20361;-49
2021/01/31 05:20:55;;;;;;;;;;;;;;;16.30;42.47;98531.78;4415520;32;19973;-56
2021/01/31 05:23:20;;;;;;;;;;;;;;;16.32;42.27;98533.53;4413247;32;19982;-53
2021/01/31 05:25:46;;;;;;;;;;;;;;;16.25;42.31;98533.53;4406075;32;19988;-52
2021/01/31 05:28:12;;;;;;;;;;;;;;;16.28;42.37;98530.91;4408837;32;19957;-55
2021/01/31 05:30:38;;;;;;;;;;;;;;;16.28;42.24;98533.53;4412833;32;19965;-51
2021/01/31 05:33:04;;;;;;;;;;;;;;;16.33;41.97;98536.16;4412794;32;20024;-55
2021/01/31 05:35:30;;;;;;;;;;;;;;;16.34;41.92;98542.28;4408070;32;19950;-53
2021/01/31 05:37:56;;;;;;;;;;;;;;;16.31;42.12;98532.66;4407267;32;19955;-51
2021/01/31 05:40:22;;;;;;;;;;;;;;;16.31;42.08;98535.28;4412173;32;19950;-55
2021/01/31 05:42:48;;;;;;;;;;;;;;;16.31;41.90;98537.94;4411415;32;20054;-52
2021/01/31 05:45:14;;;;;;;;;;;;;;;16.34;41.94;98537.03;4411693;32;20479;-51
2021/01/31 05:47:41;;;;;;;;;;;;;;;16.30;42.07;98541.44;4413540;32;19950;-52
2021/01/31 05:50:07;;;;;;;;;;;;;;;16.26;42.22;98540.53;4412592;32;19955;-55
2021/01/31 05:52:32;;;;;;;;;;;;;;;16.28;42.21;98543.16;4411543;32;20037;-55
2021/01/31 05:54:58;;;;;;;;;;;;;;;16.29;42.32;98551.03;4413508;32;19982;-51
2021/01/31 05:57:24;;;;;;;;;;;;;;;16.29;42.15;98543.16;4411175;32;19942;-55
2021/01/31 05:59:50;;;;;;;;;;;;;;;16.23;42.36;98553.66;4397220;32;20006;-49
2021/01/31 06:02:16;;;;;;;;;;;;;;;16.27;42.21;98550.16;4412395;32;20006;-52
2021/01/31 06:04:42;;;;;;;;;;;;;;;16.22;42.33;98546.66;4411076;32;19958;-54
2021/01/31 06:07:08;;;;;;;;;;;;;;;16.21;42.49;98552.78;4399151;32;19976;-52
2021/01/31 06:09:34;;;;;;;;;;;;;;;16.23;42.61;98560.69;4414879;32;19985;-53
2021/01/31 06:12:00;;;;;;;;;;;;;;;16.26;42.17;98555.41;4411580;32;19961;-54
2021/01/31 06:14:26;;;;;;;;;;;;;;;16.22;42.28;98551.91;4409534;32;19942;-50
2021/01/31 06:16:52;;;;;;;;;;;;;;;16.21;42.12;98550.16;4410887;32;19946;-54
2021/01/31 06:19:18;;;;;;;;;;;;;;;16.23;42.00;98555.41;4411545;32;19970;-53
2021/01/31 06:21:44;;;;;;;;;;;;;;;16.20;42.02;98561.53;4411551;32;20000;-51
2021/01/31 06:24:09;;;;;;;;;;;;;;;16.22;41.84;98562.41;4410552;32;19975;-56
2021/01/31 06:26:35;;;;;;;;;;;;;;;16.14;42.22;98558.94;4397836;32;19958;-52
2021/01/31 06:29:01;;;;;;;;;;;;;;;16.14;42.35;98556.31;4409353;32;20000;-53
2021/01/31 06:31:27;;;;;;;;;;;;;;;16.15;42.08;98563.31;4411700;32;19942;-53
2021/01/31 06:33:53;;;;;;;;;;;;;;;16.20;42.21;98577.28;4409751;32;19953;-52
2021/01/31 06:36:19;;;;;;;;;;;;;;;16.19;42.25;98575.53;4410991;32;19969;-57
2021/01/31 06:38:45;;;;;;;;;;;;;;;16.14;42.25;98585.19;4410368;32;19939;-52
2021/01/31 06:41:11;;;;;;;;;;;;;;;16.18;42.17;98583.44;4411084;32;19950;-55
2021/01/31 06:43:36;;;;;;;;;;;;;;;16.24;42.09;98584.31;4408679;32;19994;-50
2021/01/31 06:46:02;;;;;;;;;;;;;;;16.24;42.08;98589.59;4411071;32;19959;-54
2021/01/31 06:48:28;;;;;;;;;;;;;;;16.19;42.25;98591.31;4412789;32;20094;-50
2021/01/31 06:50:54;;;;;;;;;;;;;;;16.10;42.23;98592.19;4418112;32;20013;-49
2021/01/31 06:53:20;;;;;;;;;;;;;;;16.08;42.30;98598.28;4414544;32;19993;-54
2021/01/31 06:55:46;;;;;;;;;;;;;;;16.10;42.27;98604.41;4411282;32;19953;-52
2021/01/31 06:58:12;;;;;;;;;;;;;;;16.07;42.31;98604.41;4408141;32;19955;-57
2021/01/31 07:00:38;;;;;;;;;;;;;;;16.10;42.31;98604.41;4411216;32;20306;-54
2021/01/31 07:03:04;;;;;;;;;;;;;;;16.11;42.29;98612.31;4415429;32;19950;-55
2021/01/31 07:05:30;;;;;;;;;;;;;;;16.19;42.10;98619.34;4404686;32;19950;-54
2021/01/31 07:07:56;;;;;;;;;;;;;;;16.23;41.91;98615.84;4402193;32;19969;-53
2021/01/31 07:10:21;;;;;;;;;;;;;;;16.20;41.89;98619.31;4406827;32;19969;-55
2021/01/31 07:12:47;;;;;;;;;;;;;;;16.21;41.88;98615.81;4416203;32;19972;-51
2021/01/31 07:15:13;;;;;;;;;;;;;;;16.23;41.76;98614.06;4406976;32;19986;-56
2021/01/31 07:17:39;;;;;;;;;;;;;;;16.22;41.84;98617.56;4404706;32;19954;-53
2021/01/31 07:20:05;;;;;;;;;;;;;;;16.18;42.08;98623.69;4410831;32;19985;-54
2021/01/31 07:22:31;;;;;;;;;;;;;;;16.24;41.94;98625.47;4402971;32;19969;-52
2021/01/31 07:24:57;;;;;;;;;;;;;;;16.20;41.93;98624.56;4404455;32;19942;-53
2021/01/31 07:27:23;;;;;;;;;;;;;;;16.23;41.94;98621.94;4415266;32;20037;-54
2021/01/31 07:29:49;;;;;;;;;;;;;;;16.20;42.00;98626.34;4414069;32;19962;-53
2021/01/31 07:32:14;;;;;;;;;;;;;;;16.20;41.79;98635.06;4402135;32;19950;-57
2021/01/31 07:34:41;;;;;;;;;;;;;;;16.17;42.00;98629.81;4400587;32;19961;-54
2021/01/31 07:37:06;;;;;;;;;;;;;;;16.20;41.86;98624.56;4416410;32;19957;-53
2021/01/31 07:39:32;;;;;;;;;;;;;;;16.20;41.92;98629.81;4408737;32;19985;-52
2021/01/31 07:41:58;;;;;;;;;;;;;;;16.20;41.78;98632.44;4416168;32;19960;-56
2021/01/31 07:44:24;;;;;;;;;;;;;;;16.15;41.98;98629.81;4415527;32;19953;-52
2021/01/31 07:46:51;;;;;;;;;;;;;;;16.16;41.98;98628.06;4404934;32;19976;-51
2021/01/31 07:49:16;;;;;;;;;;;;;;;16.15;41.90;98626.31;4414152;32;19946;-57
2021/01/31 07:51:43;;;;;;;;;;;;;;;16.14;42.03;98625.44;4404963;32;19969;-56
2021/01/31 07:54:08;;;;;;;;;;;;;;;16.10;42.24;98633.31;4401929;32;19951;-55
2021/01/31 07:56:34;;;;;;;;;;;;;;;16.05;42.42;98635.06;4410667;32;19984;-55
2021/01/31 07:59:00;;;;;;;;;;;;;;;16.11;42.11;98635.06;4416222;32;19954;-56
2021/01/31 08:01:26;;;;;;;;;;;;;;;16.14;42.05;98635.09;4409774;32;19942;-55
2021/01/31 08:03:52;;;;;;;;;;;;;;;16.21;41.89;98630.72;4408604;32;19938;-56
2021/01/31 08:06:18;;;;;;;;;;;;;;;16.23;41.70;98628.97;4408974;32;20047;-55
2021/01/31 08:08:44;;;;;;;;;;;;;;;16.27;41.70;98623.72;4409765;32;19965;-53
2021/01/31 08:11:10;;;;;;;;;;;;;;;16.24;41.63;98626.34;4409779;32;19962;-57
2021/01/31 08:13:36;;;;;;;;;;;;;;;16.21;41.77;98626.31;4409016;32;19942;-56
2021/01/31 08:16:02;;;;;;;;;;;;;;;16.25;41.86;98637.72;4406756;32;20010;-55
2021/01/31 08:18:28;;;;;;;;;;;;;;;16.12;42.11;98639.47;4411228;32;20009;-57
2021/01/31 08:20:54;;;;;;;;;;;;;;;16.00;42.28;98641.19;4410464;32;20381;-52
2021/01/31 08:23:20;;;;;;;;;;;;;;;15.99;42.41;98636.81;4400101;32;19966;-56
2021/01/31 08:25:46;;;;;;;;;;;;;;;15.88;42.58;98641.97;4401867;32;20011;-55
2021/01/31 08:28:12;;;;;;;;;;;;;;;15.93;42.68;98636.78;4417931;32;19938;-54
2021/01/31 08:30:38;;;;;;;;;;;;;;;15.98;42.64;98642.03;4412158;32;19965;-55
2021/01/31 08:33:04;;;;;;;;;;;;;;;16.00;42.66;98642.91;4410061;32;19970;-53
2021/01/31 08:35:30;;;;;;;;;;;;;;;16.08;42.29;98640.31;4410676;32;19997;-56
2021/01/31 08:37:55;;;;;;;;;;;;;;;16.06;42.32;98636.81;4410336;32;19989;-53
2021/01/31 08:40:21;;;;;;;;;;;;;;;16.12;42.21;98644.72;4408126;32;20351;-56
2021/01/31 08:42:47;;;;;;;;;;;;;;;16.09;42.26;98649.94;4410590;32;19987;-55
2021/01/31 08:45:14;;;;;;;;;;;;;;;16.15;42.06;98642.09;4408902;32;19985;-55
2021/01/31 08:47:40;;;;;;;;;;;;;;;16.13;42.00;98638.59;4411878;32;19957;-56
2021/01/31 08:50:06;;;;;;;;;;;;;;;16.16;41.91;98638.59;4416620;32;19957;-54
2021/01/31 08:52:32;;;;;;;;;;;;;;;16.23;41.76;98635.06;4415965;32;19964;-55
2021/01/31 08:54:58;;;;;;;;;;;;;;;16.23;41.70;98635.06;4418498;32;19968;-55
2021/01/31 08:57:24;;;;;;;;;;;;;;;16.17;42.19;98635.09;4409142;32;19943;-49
2021/01/31 08:59:51;;;;;;;;;;;;;;;16.12;42.18;98627.19;4402837;32;19934;-55
2021/01/31 09:02:17;;;;;;;;;;;;;;;15.94;42.66;98628.03;4409388;32;19954;-53
2021/01/31 09:04:43;;;;;;;;;;;;;;;15.92;42.61;98629.78;4418156;32;20335;-55
2021/01/31 09:07:08;;;;;;;;;;;;;;;16.07;42.27;98617.53;4408875;32;19969;-53
2021/01/31 09:09:34;;;;;;;;;;;;;;;16.00;42.24;98617.56;4404448;32;20001;-51
2021/01/31 09:12:00;;;;;;;;;;;;;;;15.98;42.22;98616.63;4408502;32;19962;-53
2021/01/31 09:14:26;;;;;;;;;;;;;;;15.97;42.24;98614.03;4408345;32;19986;-51
2021/01/31 09:16:52;;;;;;;;;;;;;;;15.80;42.99;98620.06;4407652;32;19954;-54
2021/01/31 09:19:18;;;;;;;;;;;;;;;15.88;42.26;98620.13;4414626;32;19957;-53
2021/01/31 09:21:44;;;;;;;;;;;;;;;16.16;41.69;98625.44;4408644;32;20002;-54
2021/01/31 09:24:10;;;;;;;;;;;;;;;16.09;41.41;98628.94;4409762;32;19971;-56
2021/01/31 09:26:36;;;;;;;;;;;;;;;15.99;41.46;98626.31;4397574;32;20357;-55
2021/01/31 09:29:02;;;;;;;;;;;;;;;15.74;42.39;98620.94;4415288;32;19958;-52
2021/01/31 09:31:28;;;;;;;;;;;;;;;15.60;42.96;98627.84;4413987;32;21950;-56
2021/01/31 09:33:54;;;;;;;;;;;;;;;15.66;43.28;98635.78;4403049;32;19951;-54
2021/01/31 09:36:20;;;;;;;;;;;;;;;15.70;43.49;98629.66;4400969;32;19972;-50
2021/01/31 09:38:46;;;;;;;;;;;;;;;15.80;43.64;98637.56;4415355;32;19980;-56
2021/01/31 09:41:12;;;;;;;;;;;;;;;16.01;43.07;98639.41;4416733;32;19949;-53
2021/01/31 09:43:38;;;;;;;;;;;;;;;15.97;43.35;98656.03;4405313;32;19993;-53
2021/01/31 09:46:04;;;;;;;;;;;;;;;15.92;43.41;98671.78;4386993;32;20402;-52
2021/01/31 09:48:30;;;;;;;;;;;;;;;15.99;43.34;98657.81;4411946;32;19953;-53
2021/01/31 09:50:55;;;;;;;;;;;;;;;16.10;43.27;98644.69;4390774;32;20334;-53
2021/01/31 09:53:21;;;;;;;;;;;;;;;16.32;43.22;98636.87;4409908;32;19954;-53
2021/01/31 09:55:47;;;;;;;;;;;;;;;16.26;43.46;98644.72;4417362;32;19946;-53
2021/01/31 09:58:13;;;;;;;;;;;;;;;16.29;43.63;98644.72;4416188;32;20334;-52
2021/01/31 10:00:39;;;;;;;;;;;;;;;16.43;43.65;98637.75;4416931;32;19964;-53
2021/01/31 10:03:05;;;;;;;;;;;;;;;16.56;43.74;98636.00;4409815;32;19951;-56
2021/01/31 10:05:31;;;;;;;;;;;;;;;16.71;43.65;98637.75;4399982;32;19958;-53
2021/01/31 10:07:57;;;;;;;;;;;;;;;16.89;43.63;98635.13;4407587;32;20322;-56
2021/01/31 10:10:23;;;;;;;;;;;;;;;16.93;43.60;98642.13;4419392;32;20049;-56
2021/01/31 10:12:49;;;;;;;;;;;;;;;17.00;43.68;98639.50;4417162;32;20279;-53
2021/01/31 10:15:14;;;;;;;;;;;;;;;17.03;43.86;98633.38;4404870;32;19972;-56
2021/01/31 10:17:40;;;;;;;;;;;;;;;17.20;43.78;98637.72;4406834;32;19950;-56
2021/01/31 10:20:06;;;;;;;;;;;;;;;17.21;43.81;98652.63;4418573;32;19958;-56
2021/01/31 10:22:32;;;;;;;;;;;;;;;17.27;43.88;98650.00;4420080;32;20033;-56
2021/01/31 10:24:58;;;;;;;;;;;;;;;17.30;43.94;98636.81;4420629;32;19997;-56
2021/01/31 10:27:24;;;;;;;;;;;;;;;17.41;43.60;98640.31;4419094;32;20001;-57
2021/01/31 10:29:50;;;;;;;;;;;;;;;17.37;43.96;98638.56;4419716;32;19950;-56
2021/01/31 10:32:16;;;;;;;;;;;;;;;17.52;43.49;98631.50;4419910;32;19967;-56
2021/01/31 10:34:42;;;;;;;;;;;;;;;17.51;43.68;98627.97;4392117;32;19948;-56
2021/01/31 10:37:08;;;;;;;;;;;;;;;17.60;43.82;98619.19;4404106;32;19950;-55
2021/01/31 10:39:33;;;;;;;;;;;;;;;17.64;43.48;98615.66;4416663;32;19973;-54
2021/01/31 10:41:59;;;;;;;;;;;;;;;17.54;43.66;98619.22;4420291;32;20318;-57
2021/01/31 10:44:25;;;;;;;;;;;;;;;17.57;43.61;98619.19;4412436;32;19981;-56
2021/01/31 10:46:51;;;;;;;;;;;;;;;17.53;44.14;98614.81;4412442;32;19961;-54
2021/01/31 10:49:17;;;;;;;;;;;;;;;17.60;43.84;98619.19;4407628;32;19934;-55
2021/01/31 10:51:43;;;;;;;;;;;;;;;17.59;44.10;98612.16;4415189;32;20022;-56
2021/01/31 10:54:09;;;;;;;;;;;;;;;17.60;43.72;98613.94;4410525;32;19986;-56
2021/01/31 10:56:35;;;;;;;;;;;;;;;17.62;43.37;98612.16;4411565;32;19954;-53
2021/01/31 10:59:00;;;;;;;;;;;;;;;17.65;43.06;98620.03;4409412;32;20295;-56
2021/01/31 11:01:26;;;;;;;;;;;;;;;17.64;42.92;98612.13;4410429;32;19988;-55
2021/01/31 11:03:52;;;;;;;;;;;;;;;17.64;42.88;98620.03;4411291;32;19950;-56
2021/01/31 11:06:21;;;;;;;;;;;;;;;17.66;42.90;98615.66;4416275;32;19990;-57
2021/01/31 11:08:47;;;;;;;;;;;;;;;17.67;42.82;98620.91;4408670;32;19949;-56
2021/01/31 11:11:13;;;;;;;;;;;;;;;17.68;43.13;98619.16;4413843;32;19939;-56
2021/01/31 11:13:39;;;;;;;;;;;;;;;17.69;43.09;98619.13;4415922;32;19955;-56
2021/01/31 11:16:04;;;;;;;;;;;;;;;17.75;43.01;98623.50;4402332;32;20011;-56
2021/01/31 11:18:30;;;;;;;;;;;;;;;17.71;43.13;98616.50;4403470;32;19991;-56
2021/01/31 11:20:56;;;;;;;;;;;;;;;17.79;43.09;98613.84;4415262;32;19980;-56
2021/01/31 11:23:22;;;;;;;;;;;;;;;17.82;43.10;98616.44;4411230;32;20047;-57
2021/01/31 11:25:48;;;;;;;;;;;;;;;17.89;43.15;98612.91;4417461;32;19954;-56
2021/01/31 11:28:14;;;;;;;;;;;;;;;17.94;42.98;98615.53;4418290;32;19950;-56
2021/01/31 11:30:40;;;;;;;;;;;;;;;18.04;42.81;98619.00;4404214;32;19965;-56
2021/01/31 11:33:06;;;;;;;;;;;;;;;18.16;42.56;98621.56;4403011;32;19954;-56
2021/01/31 11:35:32;;;;;;;;;;;;;;;18.22;42.43;98612.75;4414608;32;19950;-56
2021/01/31 11:37:58;;;;;;;;;;;;;;;18.24;42.39;98618.88;4417753;32;19955;-57
2021/01/31 11:40:24;;;;;;;;;;;;;;;18.31;42.25;98611.78;4406988;32;20026;-55
2021/01/31 11:42:50;;;;;;;;;;;;;;;18.36;42.11;98605.59;4405885;32;20014;-53
2021/01/31 11:45:15;;;;;;;;;;;;;;;18.42;41.95;98603.81;4412501;32;19966;-54
2021/01/31 11:47:41;;;;;;;;;;;;;;;18.43;41.81;98600.31;4418381;32;19950;-56
2021/01/31 11:50:07;;;;;;;;;;;;;;;18.44;41.83;98608.19;4415365;32;19954;-56
2021/01/31 11:52:33;;;;;;;;;;;;;;;18.43;41.74;98601.16;4417101;32;20045;-56
2021/01/31 11:54:59;;;;;;;;;;;;;;;18.45;41.69;98596.75;4417652;32;20318;-54
2021/01/31 11:57:25;;;;;;;;;;;;;;;18.48;41.67;98596.75;4414313;32;19978;-55
2021/01/31 11:59:51;;;;;;;;;;;;;;;18.51;41.59;98588.81;4395212;32;19985;-56
2021/01/31 12:02:17;;;;;;;;;;;;;;;18.53;41.56;98580.91;4411266;32;19951;-56
2021/01/31 12:04:43;;;;;;;;;;;;;;;18.56;41.51;98583.50;4409882;32;19985;-56
2021/01/31 12:07:09;;;;;;;;;;;;;;;18.49;41.60;98585.31;4409782;32;20029;-55
2021/01/31 12:09:34;;;;;;;;;;;;;;;18.51;41.63;98580.91;4411644;32;19965;-55
2021/01/31 12:12:00;;;;;;;;;;;;;;;18.54;41.57;98578.22;4410007;32;19994;-55
2021/01/31 12:14:26;;;;;;;;;;;;;;;18.56;41.53;98574.69;4407284;32;20006;-56
2021/01/31 12:16:52;;;;;;;;;;;;;;;18.57;41.58;98571.16;4411809;32;20025;-53
2021/01/31 12:19:19;;;;;;;;;;;;;;;18.57;41.59;98573.81;4409755;32;20014;-57
2021/01/31 12:21:45;;;;;;;;;;;;;;;18.59;41.62;98559.72;4409848;32;20381;-56
2021/01/31 12:24:10;;;;;;;;;;;;;;;18.58;41.67;98552.72;4409527;32;20036;-56
2021/01/31 12:26:36;;;;;;;;;;;;;;;18.58;41.69;98551.81;4408878;32;20271;-55
2021/01/31 12:29:02;;;;;;;;;;;;;;;18.49;41.94;98556.31;4417166;32;19960;-56
2021/01/31 12:31:28;;;;;;;;;;;;;;;18.53;41.92;98559.81;4413201;32;21829;-56
2021/01/31 12:33:54;;;;;;;;;;;;;;;18.51;41.96;98562.44;4417921;32;19950;-54
2021/01/31 12:36:20;;;;;;;;;;;;;;;18.58;41.77;98562.38;4406085;32;19947;-53
2021/01/31 12:38:46;;;;;;;;;;;;;;;18.51;41.68;98551.91;4402882;32;20009;-50
2021/01/31 12:41:12;;;;;;;;;;;;;;;18.42;42.01;98541.44;4412483;32;20040;-54